ADDS METAR Data INFO
IDs: Format: Raw Decoded Include TAF

Data at: 1958 UTC 15 Dec 2017

K46U 151920Z AUTO 00000KT 10SM CLR M02/M08 A3023 RMK A01
K46U 151900Z AUTO 00000KT 10SM CLR M02/M08 A3024 RMK A01
K46U 151840Z AUTO 00000KT 10SM CLR M03/M08 A3026 RMK A01
K46U 151820Z AUTO 00000KT 10SM CLR M04/M10 A3028 RMK A01
K46U 151800Z AUTO 15005KT 10SM CLR M05/M10 A3029 RMK A01
K46U 151740Z AUTO 16004KT 10SM CLR M06/M10 A3030 RMK A01
K46U 151720Z AUTO 14006KT 10SM CLR M07/M11 A3031 RMK A01
K46U 151700Z AUTO 12008KT 10SM CLR M08/M11 A3031 RMK A01
K46U 151640Z AUTO 13007KT 10SM CLR M08/M12 A3033 RMK A01
K46U 151620Z AUTO 13008KT 10SM CLR M09/M12 A3033 RMK A01
K46U 151600Z AUTO VRB03G13KT 10SM CLR M09/M12 A3033 RMK A01
K46U 151540Z AUTO VRB04KT 10SM CLR M09/M13 A3032 RMK A01
K46U 151520Z AUTO 14007KT 10SM CLR M09/M13 A3033 RMK A01
K46U 151500Z AUTO 14006KT 10SM CLR M10/M13 A3034 RMK A01
K46U 151440Z AUTO 00000KT 10SM CLR M10/M12 A3034 RMK A01
K46U 151420Z AUTO 00000KT 10SM CLR M10/M13 A3035 RMK A01
K46U 151400Z AUTO 00000KT 10SM CLR M10/M12 A3035 RMK A01
K46U 151340Z AUTO 00000KT 10SM CLR M09/M12 A3036 RMK A01
K46U 151320Z AUTO 00000KT 10SM SCT037 M10/M12 A3036 RMK A01
K46U 151300Z AUTO 00000KT 10SM OVC037 M08/M11 A3036 RMK A01
K46U 151240Z AUTO 00000KT 10SM OVC036 M08/M11 A3037 RMK A01
K46U 151220Z AUTO 00000KT 10SM OVC035 M08/M11 A3037 RMK A01
K46U 151200Z AUTO 00000KT 10SM OVC035 M08/M10 A3036 RMK A01
K46U 151140Z AUTO 00000KT 10SM OVC034 M08/M10 A3036 RMK A01
K46U 151120Z AUTO 00000KT 10SM OVC034 M07/M10 A3037 RMK A01
K46U 151100Z AUTO 00000KT 10SM OVC034 M07/M10 A3038 RMK A01
K46U 151040Z AUTO 00000KT 10SM OVC034 M08/M10 A3039 RMK A01
K46U 151020Z AUTO 11003KT 10SM OVC034 M08/M10 A3040 RMK A01
K46U 151000Z AUTO 00000KT 10SM OVC035 M08/M10 A3040 RMK A01
K46U 150940Z AUTO 00000KT 10SM OVC035 M08/M10 A3040 RMK A01
K46U 150920Z AUTO 00000KT 10SM OVC035 M09/M11 A3039 RMK A01
K46U 150900Z AUTO 00000KT 10SM OVC035 M09/M11 A3039 RMK A01
K46U 150840Z AUTO 00000KT 10SM BKN037 M09/M11 A3039 RMK A01
K46U 150820Z AUTO 29003KT 10SM FEW040 M10/M12 A3039 RMK A01
K46U 150800Z AUTO 02003KT 10SM CLR M10/M12 A3039 RMK A01
K46U 150740Z AUTO 00000KT 10SM CLR M10/M11 A3039 RMK A01
K46U 150720Z AUTO 14004KT 10SM CLR M09/M11 A3040 RMK A01
K46U 150700Z AUTO 10004KT 10SM CLR M09/M10 A3042 RMK A01
K46U 150640Z AUTO 00000KT 10SM SCT010 M10/M11 A3041 RMK A01
K46U 150620Z AUTO 00000KT 10SM SCT010 M10/M11 A3041 RMK A01
K46U 150600Z AUTO 00000KT 10SM CLR M09/M11 A3042 RMK A01
K46U 150540Z AUTO 00000KT 10SM CLR M09/M10 A3041 RMK A01
K46U 150520Z AUTO 00000KT 10SM CLR M10/M11 A3041 RMK A01
K46U 150500Z AUTO 36003KT 10SM CLR M09/M10 A3040 RMK A01
K46U 150440Z AUTO 00000KT 10SM CLR M08/M09 A3040 RMK A01
K46U 150420Z AUTO 00000KT 10SM CLR M09/M10 A3041 RMK A01
K46U 150400Z AUTO 00000KT 10SM CLR M09/M10 A3041 RMK A01
K46U 150340Z AUTO 00000KT 10SM CLR M08/M09 A3040 RMK A01
K46U 150320Z AUTO 00000KT 10SM CLR M08/M09 A3040 RMK A01
K46U 150300Z AUTO 00000KT 10SM CLR M07/M09 A3040 RMK A01
K46U 150240Z AUTO 00000KT 10SM CLR M07/M09 A3039 RMK A01
K46U 150220Z AUTO 00000KT 10SM CLR M07/M08 A3039 RMK A01
K46U 150200Z AUTO 00000KT 10SM CLR M07/M08 A3039 RMK A01
K46U 150140Z AUTO 00000KT 10SM CLR M06/M08 A3038 RMK A01
K46U 150120Z AUTO 00000KT 10SM CLR M06/M08 A3039 RMK A01
K46U 150100Z AUTO 00000KT 10SM CLR M05/M08 A3038 RMK A01
K46U 150040Z AUTO 00000KT 10SM CLR M04/M07 A3038 RMK A01
K46U 150020Z AUTO 00000KT 10SM CLR M03/M06 A3038 RMK A01
K46U 150000Z AUTO 00000KT 10SM CLR M03/M07 A3038 RMK A01
K46U 142340Z AUTO 00000KT 10SM CLR M02/M06 A3038 RMK A01
K46U 142320Z AUTO 19004KT 10SM CLR M01/M07 A3038 RMK A01
K46U 142300Z AUTO VRB04KT 10SM CLR M01/M06 A3038 RMK A01
K46U 142240Z AUTO 19006KT 10SM CLR M01/M06 A3039 RMK A01
K46U 142220Z AUTO VRB05KT 10SM CLR M00/M06 A3038 RMK A01
K46U 142200Z AUTO VRB03KT 10SM CLR M00/M06 A3039 RMK A01
K46U 142140Z AUTO VRB05KT 10SM CLR M01/M06 A3039 RMK A01
K46U 142120Z AUTO VRB05KT 10SM CLR M01/M05 A3040 RMK A01
K46U 142100Z AUTO 00000KT 10SM CLR M01/M06 A3041 RMK A01
K46U 142040Z AUTO 19005KT 10SM CLR M02/M06 A3041 RMK A01
K46U 142020Z AUTO VRB05KT 10SM CLR M02/M06 A3041 RMK A01
K46U 142000Z AUTO VRB04KT 10SM CLR M03/M06 A3042 RMK A01
K46U 141940Z AUTO VRB05KT 10SM CLR M03/M06 A3042 RMK A01
K46U 141920Z AUTO 17006KT 10SM CLR M03/M06 A3043 RMK A01
K46U 141900Z AUTO VRB05KT 10SM SCT005 M04/M06 A3044 RMK A01
K46U 141840Z AUTO 00000KT 10SM OVC005 M05/M06 A3045 RMK A01
K46U 141820Z AUTO 00000KT 10SM OVC005 M05/M06 A3046 RMK A01
K46U 141800Z AUTO VRB03KT 10SM OVC006 M05/M06 A3047 RMK A01
K46U 141740Z AUTO 15004KT 10SM OVC006 M05/M06 A3048 RMK A01
K46U 141720Z AUTO 14005KT 10SM OVC005 M06/M07 A3048 RMK A01
K46U 141700Z AUTO 00000KT 10SM OVC004 M06/M07 A3048 RMK A01
K46U 141640Z AUTO 11003KT 10SM OVC004 M06/M07 A3046 RMK A01
K46U 141620Z AUTO 13006KT 10SM OVC004 M07/M08 A3046 RMK A01
K46U 141600Z AUTO 12005KT 10SM OVC005 M07/M08 A3046 RMK A01
K46U 141540Z AUTO 00000KT 10SM OVC007 M08/M09 A3045 RMK A01
K46U 141520Z AUTO 00000KT 10SM OVC007 M10/M11 A3044 RMK A01
K46U 141500Z AUTO 00000KT 10SM OVC009 M10/M11 A3043 RMK A01
K46U 141440Z AUTO VRB03KT 10SM SCT009 M10/M11 A3043 RMK A01
K46U 141420Z AUTO 00000KT 10SM CLR M10/M11 A3042 RMK A01
K46U 141400Z AUTO 00000KT 10SM CLR M09/M10 A3042 RMK A01
K46U 141340Z AUTO 00000KT 10SM CLR M09/M10 A3041 RMK A01
K46U 141320Z AUTO 00000KT 10SM CLR M10/M10 A3041 RMK A01
K46U 141300Z AUTO 12004KT 10SM CLR M09/M10 A3041 RMK A01
K46U 141240Z AUTO 00000KT 10SM CLR M09/M10 A3041 RMK A01
K46U 141220Z AUTO 00000KT 10SM CLR M09/M10 A3040 RMK A01
K46U 141200Z AUTO 00000KT 10SM CLR M09/M10 A3039 RMK A01
K46U 141140Z AUTO 00000KT 10SM CLR M09/M10 A3039 RMK A01
K46U 141120Z AUTO 00000KT 10SM CLR M07/M08 A3038 RMK A01
K46U 141100Z AUTO 15004KT 10SM CLR M07/M08 A3038 RMK A01
K46U 141040Z AUTO 12003KT 10SM CLR M06/M07 A3037 RMK A01
K46U 141020Z AUTO 00000KT 10SM CLR M06/M07 A3037 RMK A01
K46U 141000Z AUTO 00000KT 10SM FEW019 M08/M09 A3037 RMK A01
K46U 140940Z AUTO 00000KT 10SM FEW019 M07/M08 A3037 RMK A01
K46U 140920Z AUTO 00000KT 10SM CLR M07/M08 A3035 RMK A01
K46U 140900Z AUTO 00000KT 10SM CLR M06/M06 A3034 RMK A01
K46U 140840Z AUTO 00000KT 10SM FEW044 M06/M07 A3032 RMK A01
K46U 140820Z AUTO 09005KT 10SM SCT044 M05/M06 A3032 RMK A01
K46U 140800Z AUTO 12005KT 10SM SCT043 M04/M06 A3031 RMK A01